createdAt,value
2022-08-04T00:01:12.958Z,100.00
2022-08-04T00:04:02.987Z,100.00
2022-08-04T00:06:35.990Z,100.00
2022-08-04T00:09:10.877Z,100.00
2022-08-04T00:11:40.618Z,100.00
2022-08-04T00:14:15.055Z,100.00
2022-08-04T00:16:43.498Z,100.00
2022-08-04T00:19:24.687Z,100.00
2022-08-04T00:22:02.944Z,100.00
2022-08-04T00:24:34.143Z,100.00
2022-08-04T00:27:01.316Z,100.00
2022-08-04T00:29:28.724Z,100.00
2022-08-04T00:32:01.958Z,100.00
2022-08-04T00:34:29.995Z,100.00
2022-08-04T00:36:58.754Z,100.00
2022-08-04T00:39:26.756Z,100.00
2022-08-04T00:42:15.292Z,100.00
2022-08-04T00:45:00.600Z,100.00
2022-08-04T00:48:02.128Z,100.00
2022-08-04T00:50:39.344Z,100.00
2022-08-04T00:53:19.427Z,100.00
2022-08-04T00:55:54.819Z,100.00
2022-08-04T00:58:36.139Z,100.00
2022-08-04T01:01:11.499Z,100.00
2022-08-04T01:04:03.716Z,100.00
2022-08-04T01:07:01.653Z,100.00
2022-08-04T01:09:52.783Z,100.00
2022-08-04T01:12:19.406Z,100.00
2022-08-04T01:15:04.139Z,100.00
2022-08-04T01:17:44.052Z,100.00
2022-08-04T01:20:15.508Z,100.00
2022-08-04T01:23:19.120Z,100.00
2022-08-04T01:25:48.462Z,100.00
2022-08-04T01:28:50.353Z,100.00
2022-08-04T01:31:28.865Z,100.00
2022-08-04T01:34:04.370Z,100.00
2022-08-04T01:36:35.426Z,100.00
2022-08-04T01:39:24.956Z,100.00
2022-08-04T01:41:58.033Z,100.00
2022-08-04T01:44:28.854Z,100.00
2022-08-04T01:46:55.851Z,100.00
2022-08-04T01:49:28.162Z,100.00
2022-08-04T01:51:56.717Z,100.00
2022-08-04T01:54:24.292Z,100.00
2022-08-04T01:56:51.910Z,100.00
2022-08-04T01:59:20.804Z,100.00
2022-08-04T02:01:48.422Z,100.00
2022-08-04T02:04:23.430Z,100.00
2022-08-04T02:06:56.122Z,100.00
2022-08-04T02:09:30.009Z,100.00
2022-08-04T02:12:05.996Z,100.00
2022-08-04T02:15:03.273Z,100.00
2022-08-04T02:17:40.554Z,100.00
2022-08-04T02:20:23.146Z,100.00
2022-08-04T02:23:20.236Z,100.00
2022-08-04T02:25:49.203Z,100.00
2022-08-04T02:28:23.560Z,100.00
2022-08-04T02:31:22.203Z,100.00
2022-08-04T02:34:20.820Z,100.00
2022-08-04T02:36:51.757Z,100.00
2022-08-04T02:39:22.830Z,100.00
2022-08-04T02:41:53.068Z,100.00
2022-08-04T02:44:23.755Z,100.00
2022-08-04T02:46:52.849Z,100.00
2022-08-04T02:49:24.226Z,100.00
2022-08-04T02:51:57.299Z,100.00
2022-08-04T02:54:32.782Z,100.00
2022-08-04T02:57:02.217Z,100.00
2022-08-04T02:59:57.605Z,100.00
2022-08-04T03:02:35.146Z,100.00
2022-08-04T03:05:13.602Z,100.00
2022-08-04T03:07:55.106Z,100.00
2022-08-04T03:10:38.579Z,100.00
2022-08-04T03:13:36.889Z,100.00
2022-08-04T03:16:51.225Z,100.00
2022-08-04T03:19:26.763Z,100.00
2022-08-04T03:22:23.220Z,100.00
2022-08-04T03:25:13.784Z,100.00
2022-08-04T03:28:21.642Z,100.00
2022-08-04T03:31:06.820Z,100.00
2022-08-04T03:33:33.350Z,100.00
2022-08-04T03:36:37.507Z,100.00
2022-08-04T03:39:18.500Z,100.00
2022-08-04T03:42:04.896Z,100.00
2022-08-04T03:44:38.216Z,100.00
2022-08-04T03:47:20.196Z,100.00
2022-08-04T03:50:28.229Z,100.00
2022-08-04T03:53:16.537Z,100.00
2022-08-04T03:55:48.856Z,100.00
2022-08-04T03:58:47.214Z,100.00
2022-08-04T04:02:01.221Z,100.00
2022-08-04T04:04:40.521Z,100.00
2022-08-04T04:07:24.381Z,100.00
2022-08-04T04:10:28.713Z,100.00
2022-08-04T04:13:18.629Z,100.00
2022-08-04T04:15:50.090Z,100.00
2022-08-04T04:18:29.366Z,100.00
2022-08-04T04:21:19.402Z,100.00
2022-08-04T04:23:48.784Z,100.00
2022-08-04T04:27:09.417Z,100.00
2022-08-04T04:29:54.268Z,100.00
2022-08-04T04:32:46.998Z,100.00
2022-08-04T04:35:23.218Z,100.00
2022-08-04T04:38:28.716Z,100.00
2022-08-04T04:41:11.559Z,100.00
2022-08-04T04:43:51.561Z,100.00
2022-08-04T04:46:37.340Z,100.00
2022-08-04T04:49:37.918Z,100.00
2022-08-04T04:52:24.387Z,100.00
2022-08-04T04:55:14.586Z,100.00
2022-08-04T04:57:54.694Z,100.00
2022-08-04T05:00:26.445Z,100.00
2022-08-04T05:03:09.002Z,100.00
2022-08-04T05:05:51.230Z,100.00
2022-08-04T05:08:45.573Z,100.00
2022-08-04T05:11:13.707Z,100.00
2022-08-04T05:14:35.372Z,100.00
2022-08-04T05:16:51.310Z,100.00
2022-08-04T05:19:39.792Z,100.00
2022-08-04T05:22:14.789Z,100.00
2022-08-04T05:24:44.974Z,100.00
2022-08-04T05:27:25.865Z,100.00
2022-08-04T05:29:59.767Z,100.00
2022-08-04T05:32:37.552Z,100.00
2022-08-04T05:35:09.456Z,100.00
2022-08-04T05:37:40.418Z,100.00
2022-08-04T05:40:09.453Z,100.00
2022-08-04T05:42:39.698Z,100.00
2022-08-04T05:45:08.670Z,99.24
2022-08-04T05:47:36.875Z,96.91
2022-08-04T05:50:05.859Z,95.49
2022-08-04T05:52:34.690Z,94.14
2022-08-04T05:55:02.901Z,91.37
2022-08-04T05:57:30.903Z,90.48
2022-08-04T06:00:00.559Z,91.37
2022-08-04T06:02:28.549Z,89.49
2022-08-04T06:04:57.902Z,88.78
2022-08-04T06:07:26.707Z,87.24
2022-08-04T06:09:54.356Z,86.15
2022-08-04T06:12:31.156Z,85.10
2022-08-04T06:15:00.202Z,84.59
2022-08-04T06:19:56.250Z,84.06
2022-08-04T06:20:23.378Z,82.53
2022-08-04T06:22:55.660Z,81.72
2022-08-04T06:25:29.867Z,82.12
2022-08-04T06:27:58.173Z,82.00
2022-08-04T06:30:27.419Z,79.59
2022-08-04T06:33:03.685Z,76.71
2022-08-04T06:35:32.758Z,79.68
2022-08-04T06:38:01.661Z,78.00
2022-08-04T06:40:32.179Z,75.49
2022-08-04T06:43:06.474Z,75.71
2022-08-04T06:45:40.090Z,75.45
2022-08-04T06:48:08.597Z,75.74
2022-08-04T06:51:27.654Z,74.92
2022-08-04T06:53:24.501Z,75.94
2022-08-04T06:55:52.587Z,74.83
2022-08-04T06:58:21.103Z,72.01
2022-08-04T07:00:48.650Z,72.55
2022-08-04T07:03:18.198Z,72.41
2022-08-04T07:05:48.206Z,73.37
2022-08-04T07:08:15.532Z,76.06
2022-08-04T07:10:42.646Z,75.77
2022-08-04T07:13:10.633Z,76.22
2022-08-04T07:15:41.475Z,75.18
2022-08-04T07:18:08.264Z,77.92
2022-08-04T07:20:36.780Z,76.51
2022-08-04T07:23:05.664Z,72.95
2022-08-04T07:26:11.147Z,74.16
2022-08-04T07:28:22.723Z,73.97
2022-08-04T07:30:50.654Z,74.52
2022-08-04T07:33:18.381Z,73.22
2022-08-04T07:36:05.958Z,72.50
2022-08-04T07:38:37.873Z,73.34
2022-08-04T07:41:38.279Z,69.95
2022-08-04T07:44:05.844Z,67.56
2022-08-04T07:46:32.692Z,61.96
2022-08-04T07:49:02.532Z,58.94
2022-08-04T07:51:30.810Z,58.46
2022-08-04T07:53:58.678Z,57.91
2022-08-04T07:56:27.206Z,56.67
2022-08-04T07:58:54.738Z,54.80
2022-08-04T08:01:22.282Z,55.63
2022-08-04T08:03:50.831Z,55.75
2022-08-04T08:06:32.956Z,55.22
2022-08-04T08:09:12.195Z,56.99
2022-08-04T08:12:35.298Z,53.24
2022-08-04T08:14:27.554Z,54.11
2022-08-04T08:16:54.478Z,53.35
2022-08-04T08:19:21.211Z,51.55
2022-08-04T08:21:58.968Z,48.17
2022-08-04T08:24:30.883Z,49.88
2022-08-04T08:26:58.759Z,49.60
2022-08-04T08:29:26.678Z,49.08
2022-08-04T08:31:56.682Z,50.83
2022-08-04T08:34:28.951Z,50.69
2022-08-04T08:37:41.866Z,49.83
2022-08-04T08:40:11.989Z,47.70
2022-08-04T08:42:48.009Z,49.95
2022-08-04T08:45:38.837Z,47.58
2022-08-04T08:48:29.529Z,48.86
2022-08-04T08:50:58.887Z,50.66
2022-08-04T08:53:28.278Z,51.00
2022-08-04T08:56:34.261Z,50.60
2022-08-04T08:59:33.725Z,47.84
2022-08-04T09:02:18.874Z,48.29
2022-08-04T09:04:54.481Z,46.93
2022-08-04T09:07:58.701Z,46.79
2022-08-04T09:10:33.610Z,44.90
2022-08-04T09:13:17.781Z,47.56
2022-08-04T09:16:10.926Z,46.00
2022-08-04T09:18:53.111Z,45.49
2022-08-04T09:21:34.014Z,45.56
2022-08-04T09:24:36.744Z,45.73
2022-08-04T09:27:25.131Z,45.80
2022-08-04T09:30:08.468Z,45.03
2022-08-04T09:32:47.256Z,43.39
2022-08-04T09:35:19.143Z,46.45
2022-08-04T09:38:05.858Z,46.16
2022-08-04T09:40:55.431Z,44.66
2022-08-04T09:44:41.775Z,43.56
2022-08-04T09:46:27.960Z,44.25
2022-08-04T09:49:07.637Z,42.95
2022-08-04T09:51:57.801Z,44.84
2022-08-04T09:54:44.010Z,44.54
2022-08-04T09:57:41.794Z,44.50
2022-08-04T10:00:10.880Z,44.82
2022-08-04T10:03:01.173Z,44.80
2022-08-04T10:06:06.105Z,44.34
2022-08-04T10:09:09.159Z,45.03
2022-08-04T10:12:01.813Z,43.56
2022-08-04T10:14:44.171Z,46.91
2022-08-04T10:17:31.799Z,43.82
2022-08-04T10:20:11.621Z,43.91
2022-08-04T10:23:09.552Z,45.74
2022-08-04T10:26:08.718Z,45.47
2022-08-04T10:28:44.948Z,43.82
2022-08-04T10:31:19.520Z,43.52
2022-08-04T10:33:58.765Z,43.65
2022-08-04T10:36:30.406Z,44.35
2022-08-04T10:39:06.162Z,42.21
2022-08-04T10:42:13.032Z,44.29
2022-08-04T10:45:19.312Z,44.30
2022-08-04T10:47:57.803Z,44.02
2022-08-04T10:50:26.658Z,43.94
2022-08-04T10:53:23.058Z,43.67
2022-08-04T10:56:06.270Z,43.87
2022-08-04T10:58:49.791Z,45.17
2022-08-04T11:01:59.482Z,44.67
2022-08-04T11:04:48.763Z,42.55
2022-08-04T11:07:17.295Z,43.31
2022-08-04T11:09:45.345Z,43.26
2022-08-04T11:12:25.442Z,43.32
2022-08-04T11:14:54.740Z,44.44
2022-08-04T11:17:26.454Z,42.93
2022-08-04T11:20:24.812Z,42.88
2022-08-04T11:22:58.058Z,43.83
2022-08-04T11:25:36.052Z,43.96
2022-08-04T11:28:22.306Z,43.31
2022-08-04T11:31:08.167Z,45.07
2022-08-04T11:34:01.567Z,43.75
2022-08-04T11:37:00.892Z,43.23
2022-08-04T11:39:36.483Z,43.75
2022-08-04T11:42:21.111Z,43.59
2022-08-04T11:44:51.508Z,43.77
2022-08-04T11:47:30.416Z,45.50
2022-08-04T11:50:10.176Z,42.99
2022-08-04T11:52:40.410Z,41.64
2022-08-04T11:55:11.456Z,43.36
2022-08-04T11:57:39.452Z,42.39
2022-08-04T12:00:10.308Z,42.32
2022-08-04T12:02:40.457Z,43.21
2022-08-04T12:05:09.432Z,43.62
2022-08-04T12:08:11.918Z,43.37
2022-08-04T12:10:54.085Z,43.78
2022-08-04T12:13:28.128Z,44.45
2022-08-04T12:16:05.938Z,43.53
2022-08-04T12:18:43.414Z,43.95
2022-08-04T12:21:23.499Z,44.81
2022-08-04T12:24:00.612Z,43.90
2022-08-04T12:26:29.008Z,44.34
2022-08-04T12:29:10.523Z,43.13
2022-08-04T12:31:47.035Z,43.97
2022-08-04T12:34:32.300Z,44.84
2022-08-04T12:37:15.438Z,43.83
2022-08-04T12:40:21.617Z,43.37
2022-08-04T12:42:55.838Z,46.30
2022-08-04T12:45:27.298Z,44.53
2022-08-04T12:47:58.119Z,43.99
2022-08-04T12:50:25.764Z,43.63
2022-08-04T12:53:04.076Z,43.96
2022-08-04T12:55:35.454Z,44.16
2022-08-04T12:58:11.810Z,42.69
2022-08-04T13:00:41.778Z,41.88
2022-08-04T13:03:16.890Z,44.27
2022-08-04T13:05:45.541Z,42.95
2022-08-04T13:08:13.948Z,43.30
2022-08-04T13:10:44.597Z,42.22
2022-08-04T13:13:20.027Z,42.87
2022-08-04T13:16:08.381Z,43.78
2022-08-04T13:18:42.778Z,43.07
2022-08-04T13:21:21.035Z,44.88
2022-08-04T13:27:06.276Z,44.67
2022-08-04T13:29:58.053Z,46.53
2022-08-04T13:30:24.216Z,45.51
2022-08-04T13:32:28.840Z,44.73
2022-08-04T13:34:57.534Z,46.55
2022-08-04T13:37:36.114Z,45.75
2022-08-04T13:40:09.240Z,45.37
2022-08-04T13:42:39.065Z,46.94
2022-08-04T13:45:08.383Z,45.69
2022-08-04T13:47:38.485Z,46.21
2022-08-04T13:50:19.786Z,46.80
2022-08-04T13:52:47.270Z,47.35
2022-08-04T13:55:28.189Z,45.03
2022-08-04T13:58:19.073Z,44.39
2022-08-04T14:01:00.840Z,45.53
2022-08-04T14:03:54.186Z,47.02
2022-08-04T14:06:28.563Z,45.12
2022-08-04T14:08:58.450Z,45.83
2022-08-04T14:12:09.084Z,48.73
2022-08-04T14:14:29.743Z,47.31
2022-08-04T14:17:20.477Z,46.79
2022-08-04T14:19:50.218Z,48.07
2022-08-04T14:22:25.753Z,47.21
2022-08-04T14:25:17.982Z,47.61
2022-08-04T14:27:51.284Z,47.69
2022-08-04T14:30:35.577Z,46.00
2022-08-04T14:34:02.424Z,47.90
2022-08-04T14:36:01.477Z,47.32
2022-08-04T14:38:44.094Z,47.86
2022-08-04T14:41:11.716Z,48.39
2022-08-04T14:43:46.323Z,48.24
2022-08-04T14:46:13.500Z,47.69
2022-08-04T14:48:59.609Z,46.56
2022-08-04T14:51:36.537Z,47.48
2022-08-04T14:54:08.231Z,49.52
2022-08-04T14:56:46.732Z,48.74
2022-08-04T14:59:14.103Z,48.98
2022-08-04T15:01:42.220Z,50.12
2022-08-04T15:04:11.262Z,48.07
2022-08-04T15:06:38.093Z,46.21
2022-08-04T15:09:07.812Z,49.16
2022-08-04T15:11:38.911Z,49.95
2022-08-04T15:14:08.716Z,50.31
2022-08-04T15:16:55.410Z,48.56
2022-08-04T15:19:22.904Z,49.65
2022-08-04T15:21:49.854Z,50.98
2022-08-04T15:24:16.612Z,50.10
2022-08-04T15:26:49.846Z,50.71
2022-08-04T15:30:00.354Z,53.05
2022-08-04T15:32:34.369Z,51.89
2022-08-04T15:35:24.754Z,52.91
2022-08-04T15:38:15.391Z,52.72
2022-08-04T15:41:05.180Z,53.64
2022-08-04T15:44:02.197Z,53.25
2022-08-04T15:46:46.813Z,51.24
2022-08-04T15:49:21.715Z,50.76
2022-08-04T15:52:00.286Z,51.88
2022-08-04T15:54:32.773Z,53.14
2022-08-04T15:57:01.412Z,53.69
2022-08-04T15:59:59.912Z,53.31
2022-08-04T16:02:32.457Z,55.12
2022-08-04T16:05:17.842Z,55.29
2022-08-04T16:08:04.632Z,56.78
2022-08-04T16:10:31.274Z,56.61
2022-08-04T16:13:03.499Z,55.49
2022-08-04T16:15:47.624Z,55.32
2022-08-04T16:18:27.425Z,57.08
2022-08-04T16:21:03.918Z,58.17
2022-08-04T16:23:53.611Z,58.43
2022-08-04T16:26:37.873Z,56.02
2022-08-04T16:29:31.121Z,57.87
2022-08-04T16:32:07.161Z,57.33
2022-08-04T16:34:55.185Z,58.72
2022-08-04T16:37:31.074Z,58.63
2022-08-04T16:40:33.289Z,59.04
2022-08-04T16:43:08.862Z,59.18
2022-08-04T16:46:01.180Z,59.50
2022-08-04T16:48:30.126Z,59.32
2022-08-04T16:51:10.732Z,61.57
2022-08-04T16:53:58.742Z,61.93
2022-08-04T16:56:33.248Z,62.59
2022-08-04T16:59:07.525Z,64.51
2022-08-04T17:01:34.986Z,63.83
2022-08-04T17:04:07.488Z,64.10
2022-08-04T17:06:40.200Z,64.26
2022-08-04T17:09:13.011Z,65.54
2022-08-04T17:11:42.180Z,65.61
2022-08-04T17:14:09.366Z,65.15
2022-08-04T17:16:41.867Z,69.60
2022-08-04T17:19:23.885Z,69.98
2022-08-04T17:22:04.576Z,70.78
2022-08-04T17:24:33.520Z,73.00
2022-08-04T17:27:00.914Z,71.74
2022-08-04T17:29:44.598Z,72.54
2022-08-04T17:32:18.808Z,72.21
2022-08-04T17:34:50.103Z,71.90
2022-08-04T17:37:39.915Z,72.29
2022-08-04T17:40:18.063Z,71.04
2022-08-04T17:42:50.392Z,73.52
2022-08-04T17:45:53.230Z,72.85
2022-08-04T17:48:09.228Z,72.91
2022-08-04T17:50:36.758Z,72.63
2022-08-04T17:53:12.213Z,73.63
2022-08-04T17:55:49.345Z,73.92
2022-08-04T17:58:23.200Z,74.22
2022-08-04T18:03:52.850Z,75.61
2022-08-04T18:06:22.103Z,75.59
2022-08-04T18:08:58.952Z,75.72
2022-08-04T18:12:02.619Z,75.97
2022-08-04T18:14:38.637Z,76.17
2022-08-04T18:17:17.838Z,75.84
2022-08-04T18:19:55.416Z,78.34
2022-08-04T18:22:27.695Z,77.84
2022-08-04T18:24:56.812Z,77.76
2022-08-04T18:27:26.228Z,77.31
2022-08-04T18:30:31.061Z,77.84
2022-08-04T18:33:10.490Z,78.01
2022-08-04T18:36:33.182Z,78.05
2022-08-04T18:38:23.433Z,78.53
2022-08-04T18:40:54.393Z,78.08
2022-08-04T18:43:28.495Z,79.48
2022-08-04T18:46:14.436Z,78.66
2022-08-04T18:48:41.644Z,79.41
2022-08-04T18:51:22.451Z,82.22
2022-08-04T18:53:55.124Z,83.22
2022-08-04T18:56:29.181Z,83.77
2022-08-04T18:58:57.330Z,82.27
2022-08-04T19:01:30.106Z,82.74
2022-08-04T19:04:33.654Z,82.81
2022-08-04T19:07:03.828Z,82.94
2022-08-04T19:09:51.849Z,82.27
2022-08-04T19:12:27.513Z,82.84
2022-08-04T19:14:58.571Z,82.21
2022-08-04T19:17:52.735Z,83.61
2022-08-04T19:20:25.800Z,83.38
2022-08-04T19:24:27.807Z,83.76
2022-08-04T19:25:59.337Z,85.93
2022-08-04T19:28:29.824Z,85.18
2022-08-04T19:30:58.086Z,85.10
2022-08-04T19:33:25.618Z,85.05
2022-08-04T19:35:57.215Z,84.68
2022-08-04T19:38:24.026Z,85.82
2022-08-04T19:40:52.686Z,85.77
2022-08-04T19:43:23.058Z,85.90
2022-08-04T19:45:50.333Z,85.90
2022-08-04T19:48:19.424Z,85.41
2022-08-04T19:50:47.302Z,85.82
2022-08-04T19:53:19.368Z,85.69
2022-08-04T19:55:49.815Z,86.31
2022-08-04T19:58:17.957Z,86.39
2022-08-04T20:00:51.252Z,86.34
2022-08-04T20:03:20.478Z,86.68
2022-08-04T20:05:55.054Z,86.89
2022-08-04T20:08:24.144Z,87.43
2022-08-04T20:10:52.353Z,87.27
2022-08-04T20:13:30.522Z,87.11
2022-08-04T20:15:59.176Z,87.09
2022-08-04T20:18:36.018Z,87.46
2022-08-04T20:21:23.901Z,87.85
2022-08-04T20:24:40.299Z,89.26
2022-08-04T20:26:48.737Z,89.13
2022-08-04T20:29:20.822Z,88.92
2022-08-04T20:32:05.648Z,89.54
2022-08-04T20:34:35.428Z,89.79
2022-08-04T20:37:03.184Z,90.00
2022-08-04T20:39:30.961Z,89.91
2022-08-04T20:41:58.359Z,90.28
2022-08-04T20:44:25.573Z,90.25
2022-08-04T20:46:52.365Z,90.79
2022-08-04T20:49:19.061Z,90.45
2022-08-04T20:51:46.353Z,90.66
2022-08-04T20:54:26.803Z,90.58
2022-08-04T20:56:59.564Z,91.25
2022-08-04T20:59:26.452Z,91.92
2022-08-04T21:01:54.105Z,91.80
2022-08-04T21:04:35.830Z,91.74
2022-08-04T21:07:06.117Z,91.73
2022-08-04T21:09:37.917Z,91.89
2022-08-04T21:12:26.796Z,92.52
2022-08-04T21:15:01.481Z,93.17
2022-08-04T21:17:59.104Z,93.95
2022-08-04T21:20:28.390Z,93.96
2022-08-04T21:23:01.533Z,93.80
2022-08-04T21:25:29.332Z,93.52
2022-08-04T21:27:58.783Z,93.34
2022-08-04T21:30:27.073Z,94.09
2022-08-04T21:32:55.208Z,93.98
2022-08-04T21:35:36.914Z,93.93
2022-08-04T21:38:17.157Z,94.47
2022-08-04T21:41:01.937Z,94.74
2022-08-04T21:43:42.782Z,95.08
2022-08-04T21:46:11.495Z,96.77
2022-08-04T21:48:39.168Z,96.73
2022-08-04T21:54:08.475Z,96.77
2022-08-04T21:56:36.493Z,97.25
2022-08-04T21:59:11.111Z,98.29
2022-08-04T22:01:51.801Z,97.81
2022-08-04T22:04:19.471Z,97.92
2022-08-04T22:06:47.628Z,98.15
2022-08-04T22:09:18.926Z,98.23
2022-08-04T22:11:51.157Z,98.98
2022-08-04T22:14:29.263Z,99.08
2022-08-04T22:17:04.162Z,99.87
2022-08-04T22:19:54.983Z,99.52
2022-08-04T22:22:26.286Z,99.52
2022-08-04T22:25:00.293Z,99.56
2022-08-04T22:27:47.397Z,99.19
2022-08-04T22:30:17.756Z,100.00
2022-08-04T22:32:48.492Z,100.00
2022-08-04T22:35:43.374Z,100.00
2022-08-04T22:38:06.603Z,100.00
2022-08-04T22:40:50.087Z,100.00
2022-08-04T22:43:32.602Z,100.00
2022-08-04T22:46:06.483Z,100.00
2022-08-04T22:48:38.465Z,100.00
2022-08-04T22:51:07.389Z,100.00
2022-08-04T22:53:35.458Z,100.00
2022-08-04T22:56:09.802Z,100.00
2022-08-04T22:58:40.152Z,100.00
2022-08-04T23:01:08.112Z,100.00
2022-08-04T23:03:37.279Z,100.00
2022-08-04T23:06:10.898Z,100.00
2022-08-04T23:08:46.475Z,100.00
2022-08-04T23:11:15.209Z,100.00
2022-08-04T23:13:42.701Z,100.00
2022-08-04T23:16:10.491Z,100.00
2022-08-04T23:18:41.806Z,100.00
2022-08-04T23:21:10.343Z,100.00
2022-08-04T23:23:47.694Z,100.00
2022-08-04T23:26:27.695Z,100.00
2022-08-04T23:28:58.165Z,100.00
2022-08-04T23:31:25.407Z,100.00
2022-08-04T23:34:07.430Z,100.00
2022-08-04T23:36:35.234Z,100.00
2022-08-04T23:39:05.555Z,100.00
2022-08-04T23:41:54.303Z,100.00
2022-08-04T23:44:25.342Z,100.00
2022-08-04T23:47:03.337Z,100.00
2022-08-04T23:49:43.949Z,100.00
2022-08-04T23:52:28.098Z,100.00
2022-08-04T23:55:00.302Z,100.00
2022-08-04T23:58:06.324Z,100.00
